Time;durP1;ratioP1;P1;durP2;ratioP2;P2;SDS_P1;SDS_P2;PMS_P1;PMS_P2;Temp;Humidity;BMP_temperature;BMP_pressure;BME280_temperature;BME280_humidity;BME280_pressure;Samples;Min_cycle;Max_cycle;Signal;HPM_P1;HPM_P2
2022/12/18 00:00:41;;;;;;;61.90;25.38;;;-3.10;99.90;;;;;;5092311;28;20122;-66
2022/12/18 00:03:07;;;;;;;60.78;26.48;;;-3.20;99.90;;;;;;5092170;28;20063;-66
2022/12/18 00:05:32;;;;;;;62.85;27.05;;;-3.20;99.90;;;;;;5092344;28;20043;-66
2022/12/18 00:07:58;;;;;;;61.70;25.98;;;-3.20;99.90;;;;;;5092385;28;20058;-66
2022/12/18 00:10:23;;;;;;;66.25;27.45;;;-3.20;99.90;;;;;;5091338;28;20032;-67
2022/12/18 00:12:49;;;;;;;66.88;27.52;;;-3.20;99.90;;;;;;5089221;28;20039;-66
2022/12/18 00:15:15;;;;;;;69.60;27.35;;;-3.20;99.90;;;;;;5124970;28;20039;-66
2022/12/18 00:17:40;;;;;;;63.05;26.90;;;-3.20;99.90;;;;;;5093228;28;20047;-67
2022/12/18 00:20:07;;;;;;;67.43;27.95;;;-3.20;99.90;;;;;;5091861;28;20040;-66
2022/12/18 00:22:32;;;;;;;70.10;26.70;;;-3.20;99.90;;;;;;5074520;28;20062;-66
2022/12/18 00:24:58;;;;;;;66.10;26.58;;;-3.20;99.90;;;;;;5090530;28;20043;-66
2022/12/18 00:27:23;;;;;;;66.28;27.92;;;-3.20;99.90;;;;;;5094315;28;20059;-67
2022/12/18 00:29:49;;;;;;;69.47;28.65;;;-3.20;99.90;;;;;;5095078;28;20030;-67
2022/12/18 00:32:15;;;;;;;65.03;25.05;;;-3.30;99.90;;;;;;5090894;28;20040;-66
2022/12/18 00:34:40;;;;;;;67.57;29.55;;;-3.30;99.90;;;;;;5092512;28;20062;-67
2022/12/18 00:37:06;;;;;;;66.22;29.27;;;-3.40;99.90;;;;;;5092880;27;20074;-67
2022/12/18 00:39:32;;;;;;;66.78;29.23;;;-3.40;99.90;;;;;;5095558;28;20480;-67
2022/12/18 00:44:41;;;;;;;64.45;27.63;;;-3.30;99.90;;;;;;5100552;27;20050;-67
2022/12/18 00:47:07;;;;;;;68.05;29.33;;;-3.30;99.90;;;;;;5079791;28;20486;-67
2022/12/18 00:49:32;;;;;;;72.95;31.05;;;-3.30;99.90;;;;;;5078760;28;20081;-67
2022/12/18 00:51:58;;;;;;;72.78;30.95;;;-3.30;99.90;;;;;;5095748;28;20093;-66
2022/12/18 00:54:24;;;;;;;70.35;30.98;;;-3.20;99.90;;;;;;5095309;28;20443;-67
2022/12/18 00:56:49;;;;;;;72.72;31.15;;;-3.20;99.90;;;;;;5095429;28;20421;-67
2022/12/18 00:59:16;;;;;;;66.07;30.55;;;-3.20;99.90;;;;;;5129455;27;20482;-67
2022/12/18 01:01:42;;;;;;;70.15;30.63;;;-3.20;99.90;;;;;;5096994;28;20394;-67
2022/12/18 01:04:08;;;;;;;66.70;30.17;;;-3.20;99.90;;;;;;5129557;27;20028;-66
2022/12/18 01:06:33;;;;;;;73.80;31.38;;;-3.20;99.90;;;;;;5095229;28;20040;-66
2022/12/18 01:08:59;;;;;;;74.90;31.80;;;-3.30;99.90;;;;;;5078787;28;20059;-67
2022/12/18 01:11:26;;;;;;;74.10;31.08;;;-3.30;99.90;;;;;;5095040;28;20070;-66
2022/12/18 01:13:53;;;;;;;73.82;32.70;;;-3.40;99.90;;;;;;5095216;28;20082;-67
2022/12/18 01:16:19;;;;;;;74.18;33.17;;;-3.40;99.90;;;;;;5094834;28;20074;-66
2022/12/18 01:18:45;;;;;;;79.57;31.80;;;-3.40;99.90;;;;;;5079824;28;20470;-67
2022/12/18 01:21:13;;;;;;;79.85;33.65;;;-3.40;99.90;;;;;;5095115;28;20086;-67
2022/12/18 01:23:39;;;;;;;70.07;31.33;;;-3.50;99.90;;;;;;5077872;28;20047;-67
2022/12/18 01:26:11;;;;;;;68.07;30.25;;;-3.50;99.90;;;;;;5094846;28;20371;-67
2022/12/18 01:28:38;;;;;;;70.57;31.15;;;-3.50;99.90;;;;;;5094953;28;20074;-67
2022/12/18 01:31:19;;;;;;;70.18;31.02;;;-3.40;99.90;;;;;;5094892;28;20074;-67
2022/12/18 01:33:45;;;;;;;71.38;29.90;;;-3.40;99.90;;;;;;5094659;28;20046;-67
2022/12/18 01:36:26;;;;;;;68.32;29.50;;;-3.50;99.90;;;;;;5129529;27;20110;-66
2022/12/18 01:38:52;;;;;;;67.80;29.52;;;-3.50;99.90;;;;;;5094825;28;20114;-67
2022/12/18 01:41:21;;;;;;;67.05;29.65;;;-3.50;99.90;;;;;;5094128;28;20375;-67
2022/12/18 01:43:50;;;;;;;74.20;31.42;;;-3.50;99.90;;;;;;5094375;28;20046;-67
2022/12/18 01:46:18;;;;;;;62.33;28.25;;;-3.60;99.90;;;;;;5093734;28;20047;-67
2022/12/18 01:48:46;;;;;;;65.15;28.33;;;-3.60;99.90;;;;;;5090455;28;20070;-66
2022/12/18 01:51:12;;;;;;;62.78;27.25;;;-3.60;99.90;;;;;;5094194;28;20431;-67
2022/12/18 01:53:40;;;;;;;65.82;28.20;;;-3.70;99.90;;;;;;5094845;28;20397;-66
2022/12/18 01:56:06;;;;;;;63.80;26.80;;;-3.70;99.90;;;;;;5076540;28;20063;-66
2022/12/18 01:58:59;;;;;;;65.75;27.25;;;-3.80;99.90;;;;;;5092049;28;20036;-66
2022/12/18 02:01:26;;;;;;;65.65;27.27;;;-3.80;99.90;;;;;;5091691;28;20387;-67
2022/12/18 02:03:52;;;;;;;60.72;26.73;;;-3.90;99.90;;;;;;5092520;28;20036;-67
2022/12/18 02:06:34;;;;;;;64.10;27.55;;;-3.90;99.90;;;;;;5126220;27;20065;-67
2022/12/18 02:09:20;;;;;;;57.22;25.08;;;-3.90;99.90;;;;;;5094148;28;20032;-67
2022/12/18 02:12:13;;;;;;;62.85;26.77;;;-3.90;99.90;;;;;;5126686;27;20192;-66
2022/12/18 02:14:45;;;;;;;;;;;-3.90;99.90;;;;;;5128480;27;20457;-66
2022/12/18 02:17:22;;;;;;;59.35;24.85;;;-3.90;99.90;;;;;;5093771;28;20455;-66
2022/12/18 02:20:13;;;;;;;60.03;25.90;;;-4.00;99.90;;;;;;5093384;28;20043;-67
2022/12/18 02:22:58;;;;;;;60.17;25.55;;;-4.00;99.90;;;;;;5127624;27;20052;-67
2022/12/18 02:25:29;;;;;;;62.55;26.08;;;-4.00;99.90;;;;;;5110804;28;20071;-67
2022/12/18 02:27:59;;;;;;;59.42;26.30;;;-4.10;99.90;;;;;;5130142;27;20044;-67
2022/12/18 02:30:26;;;;;;;59.00;26.42;;;-4.10;99.90;;;;;;5093945;28;20032;-67
2022/12/18 02:32:54;;;;;;;62.15;25.13;;;-4.10;99.90;;;;;;5093420;28;20056;-66
2022/12/18 02:35:24;;;;;;;59.70;25.45;;;-4.10;99.90;;;;;;5127792;27;20058;-67
2022/12/18 02:37:51;;;;;;;58.35;25.88;;;-4.10;99.90;;;;;;5093569;28;20582;-67
2022/12/18 02:40:17;;;;;;;61.10;26.10;;;-4.20;99.90;;;;;;5127835;27;20043;-66
2022/12/18 02:42:43;;;;;;;55.47;25.33;;;-4.10;99.90;;;;;;5093281;28;20056;-67
2022/12/18 02:45:09;;;;;;;58.22;24.65;;;-4.20;99.90;;;;;;5096929;28;20074;-66
2022/12/18 02:47:43;;;;;;;55.88;24.35;;;-4.20;99.90;;;;;;5093298;28;20047;-67
2022/12/18 02:50:33;;;;;;;58.35;24.63;;;-4.20;99.90;;;;;;5093375;28;20032;-67
2022/12/18 02:53:07;;;;;;;57.90;24.77;;;-4.20;99.90;;;;;;5093317;28;20122;-67
2022/12/18 02:55:48;;;;;;;58.05;24.92;;;-4.20;99.90;;;;;;5093505;28;20036;-66
2022/12/18 02:58:51;;;;;;;61.53;24.80;;;-4.20;99.90;;;;;;5093146;28;20382;-67
2022/12/18 03:01:28;;;;;;;54.33;24.25;;;-4.20;99.90;;;;;;5097533;28;20055;-67
2022/12/18 03:04:09;;;;;;;57.83;25.25;;;-4.20;99.90;;;;;;5111074;28;20043;-67
2022/12/18 03:06:46;;;;;;;56.55;24.00;;;-4.30;99.90;;;;;;5093158;28;20028;-67
2022/12/18 03:09:19;;;;;;;57.30;24.70;;;-4.30;99.90;;;;;;5092961;28;20097;-66
2022/12/18 03:14:37;;;;;;;60.40;23.35;;;-4.30;99.90;;;;;;5126367;27;20126;-67
2022/12/18 03:17:07;;;;;;;61.75;24.88;;;-4.30;99.90;;;;;;5093380;28;20501;-66
2022/12/18 03:19:34;;;;;;;63.88;25.42;;;-4.40;99.90;;;;;;5093163;28;20126;-67
2022/12/18 03:22:04;;;;;;;56.20;24.67;;;-4.40;99.90;;;;;;5129613;27;20047;-67
2022/12/18 03:24:32;;;;;;;61.75;24.67;;;-4.40;99.90;;;;;;5126459;27;20051;-66
2022/12/18 03:27:02;;;;;;;59.78;25.38;;;-4.40;99.90;;;;;;5091696;28;20035;-67
2022/12/18 03:29:32;;;;;;;54.10;21.75;;;-4.50;99.90;;;;;;5093386;28;20036;-67
2022/12/18 03:32:05;;;;;;;60.55;24.63;;;-4.50;99.90;;;;;;5075170;28;20478;-67
2022/12/18 03:34:34;;;;;;;48.63;21.40;;;-4.50;99.90;;;;;;5096193;28;20054;-66
2022/12/18 03:37:04;;;;;;;59.80;23.85;;;-4.50;99.90;;;;;;5094143;28;20100;-67
2022/12/18 03:39:30;;;;;;;51.83;23.33;;;-4.50;99.90;;;;;;5071258;28;20036;-67
2022/12/18 03:42:07;;;;;;;54.95;23.25;;;-4.50;99.90;;;;;;5092372;28;20113;-66
2022/12/18 03:44:57;;;;;;;57.65;23.05;;;-4.40;99.90;;;;;;5092213;28;20114;-67
2022/12/18 03:47:26;;;;;;;52.85;20.98;;;-4.50;99.90;;;;;;5092366;28;20042;-67
2022/12/18 03:50:06;;;;;;;57.42;22.92;;;-4.40;99.90;;;;;;5092230;28;20043;-66
2022/12/18 03:52:35;;;;;;;54.40;22.13;;;-4.40;99.90;;;;;;5095354;28;20071;-67
2022/12/18 03:55:03;;;;;;;54.50;22.58;;;-4.50;99.90;;;;;;5091782;28;20051;-67
2022/12/18 03:57:31;;;;;;;55.50;22.10;;;-4.50;99.90;;;;;;5126362;28;20044;-67
2022/12/18 04:00:02;;;;;;;48.83;20.67;;;-4.50;99.90;;;;;;5092429;28;20579;-66
2022/12/18 04:02:30;;;;;;;54.53;21.60;;;-4.50;99.90;;;;;;5092064;28;20040;-66
2022/12/18 04:05:00;;;;;;;55.55;22.05;;;-4.50;99.90;;;;;;5126287;28;20051;-67
2022/12/18 04:07:27;;;;;;;48.60;21.00;;;-4.50;99.90;;;;;;5091951;28;20047;-66
2022/12/18 04:09:56;;;;;;;47.97;20.83;;;-4.50;99.90;;;;;;5093777;28;20043;-66
2022/12/18 04:12:25;;;;;;;54.05;22.65;;;-4.60;99.90;;;;;;5094653;28;20036;-66
2022/12/18 04:14:51;;;;;;;57.83;23.25;;;-4.60;99.90;;;;;;5130862;27;20028;-66
2022/12/18 04:17:17;;;;;;;52.55;21.80;;;-4.60;99.90;;;;;;5096147;28;20105;-66
2022/12/18 04:19:43;;;;;;;50.50;21.85;;;-4.60;99.90;;;;;;5096434;28;20050;-67
2022/12/18 04:22:10;;;;;;;57.08;21.20;;;-4.70;99.90;;;;;;5096547;28;20078;-67
2022/12/18 04:24:36;;;;;;;55.53;21.17;;;-4.70;99.90;;;;;;5095735;28;20063;-67
2022/12/18 04:27:02;;;;;;;55.08;22.77;;;-4.70;99.90;;;;;;5096793;28;20066;-66
2022/12/18 04:29:28;;;;;;;48.20;20.38;;;-4.80;99.90;;;;;;5130049;27;20035;-67
2022/12/18 04:31:54;;;;;;;63.55;22.48;;;-4.90;99.90;;;;;;5096049;28;20043;-67
2022/12/18 04:34:20;;;;;;;55.03;20.88;;;-4.90;99.90;;;;;;5130026;27;20039;-67
2022/12/18 04:36:46;;;;;;;55.42;21.60;;;-4.90;99.90;;;;;;5078968;28;20126;-67
2022/12/18 04:39:11;;;;;;;47.67;20.02;;;-4.90;99.90;;;;;;5095430;28;20138;-67
2022/12/18 04:41:37;;;;;;;53.60;22.27;;;-4.90;99.90;;;;;;5095802;28;20035;-66
2022/12/18 04:44:03;;;;;;;52.83;21.67;;;-4.90;99.90;;;;;;5128442;27;20075;-67
2022/12/18 04:46:28;;;;;;;52.35;20.83;;;-4.90;99.90;;;;;;5093533;28;20063;-67
2022/12/18 04:48:54;;;;;;;50.38;21.13;;;-4.80;99.90;;;;;;5095887;28;20474;-67
2022/12/18 04:51:19;;;;;;;53.63;20.38;;;-4.80;99.90;;;;;;5095849;28;20036;-67
2022/12/18 04:53:45;;;;;;;51.05;21.17;;;-4.80;99.90;;;;;;5095729;28;20118;-67
2022/12/18 04:56:14;;;;;;;50.13;21.10;;;-4.80;99.90;;;;;;5095561;28;20051;-67
2022/12/18 04:58:41;;;;;;;49.63;20.77;;;-4.80;99.90;;;;;;5095375;28;20394;-67
2022/12/18 05:01:08;;;;;;;50.95;20.13;;;-4.80;99.90;;;;;;5096131;28;20479;-67
2022/12/18 05:03:35;;;;;;;55.90;21.20;;;-4.80;99.90;;;;;;5077969;28;20035;-67
2022/12/18 05:06:00;;;;;;;52.65;20.85;;;-4.80;99.90;;;;;;5095527;28;20036;-67
2022/12/18 05:08:26;;;;;;;49.92;20.90;;;-4.80;99.90;;;;;;5129550;27;20046;-67
2022/12/18 05:11:06;;;;;;;49.00;19.80;;;-4.90;99.90;;;;;;5095199;28;20065;-67
2022/12/18 05:13:33;;;;;;;50.53;20.55;;;-4.80;99.90;;;;;;5093746;28;20486;-67
2022/12/18 05:15:59;;;;;;;51.38;20.70;;;-4.90;99.90;;;;;;5099156;28;20039;-67
2022/12/18 05:18:25;;;;;;;52.92;21.23;;;-4.90;99.90;;;;;;5126129;27;20462;-67
2022/12/18 05:20:52;;;;;;;42.78;19.75;;;-4.90;99.90;;;;;;5077890;28;20120;-67
2022/12/18 05:23:19;;;;;;;47.25;19.27;;;-4.90;99.90;;;;;;5094844;28;20035;-67
2022/12/18 05:26:02;;;;;;;54.17;20.02;;;-4.90;99.90;;;;;;5096918;27;20039;-67
2022/12/18 05:28:30;;;;;;;50.60;19.88;;;-5.00;99.90;;;;;;5093499;27;20089;-67
2022/12/18 05:30:58;;;;;;;47.05;19.52;;;-5.00;99.90;;;;;;5129426;27;20126;-67
2022/12/18 05:33:26;;;;;;;47.50;19.98;;;-5.00;99.90;;;;;;5093408;27;20489;-66
2022/12/18 05:35:56;;;;;;;43.85;19.10;;;-5.00;99.90;;;;;;5093318;28;20031;-67
2022/12/18 05:38:24;;;;;;;42.97;19.08;;;-5.00;99.90;;;;;;5094510;28;20040;-67
2022/12/18 05:40:50;;;;;;;45.33;18.65;;;-5.10;99.90;;;;;;5094074;28;20394;-67
2022/12/18 05:43:17;;;;;;;47.75;20.15;;;-5.10;99.90;;;;;;5094743;28;20047;-67
2022/12/18 05:45:43;;;;;;;46.35;19.65;;;-5.10;99.90;;;;;;5081666;27;20092;-67
2022/12/18 05:48:10;;;;;;;41.17;18.33;;;-5.10;99.90;;;;;;5094263;28;20043;-67
2022/12/18 05:50:37;;;;;;;43.88;19.27;;;-5.10;99.90;;;;;;5094986;27;20031;-67
2022/12/18 05:53:04;;;;;;;40.53;17.70;;;-5.10;99.90;;;;;;5128321;27;20775;-67
2022/12/18 05:55:32;;;;;;;44.65;18.77;;;-5.10;99.90;;;;;;5094314;28;20050;-67
2022/12/18 05:57:58;;;;;;;44.67;19.23;;;-5.10;99.90;;;;;;5093928;28;20036;-67
2022/12/18 06:00:23;;;;;;;39.83;18.17;;;-5.10;99.90;;;;;;5096978;27;20035;-67
2022/12/18 06:02:49;;;;;;;47.80;18.88;;;-5.00;99.90;;;;;;5094902;28;20048;-67
2022/12/18 06:05:15;;;;;;;38.15;18.08;;;-5.00;99.90;;;;;;5094787;27;20118;-67
2022/12/18 06:07:40;;;;;;;41.72;16.90;;;-5.00;99.90;;;;;;5094907;28;20051;-67
2022/12/18 06:10:06;;;;;;;36.90;17.13;;;-5.00;99.90;;;;;;5093849;28;20051;-67
2022/12/18 06:12:33;;;;;;;38.60;18.67;;;-5.00;99.90;;;;;;5094170;28;20035;-67
2022/12/18 06:14:59;;;;;;;37.58;17.30;;;-4.90;99.90;;;;;;5094225;28;20532;-67
2022/12/18 06:17:29;;;;;;;35.85;17.15;;;-4.90;99.90;;;;;;5077509;28;20071;-67
2022/12/18 06:19:55;;;;;;;37.90;18.23;;;-4.80;99.90;;;;;;5093649;28;20110;-67
2022/12/18 06:22:21;;;;;;;40.58;17.38;;;-4.80;99.90;;;;;;5093268;27;20447;-66
2022/12/18 06:24:47;;;;;;;35.13;16.63;;;-4.80;99.90;;;;;;5094101;28;20524;-67
2022/12/18 06:27:13;;;;;;;40.60;17.50;;;-4.80;99.90;;;;;;5093335;28;20063;-67
2022/12/18 06:29:38;;;;;;;37.22;16.63;;;-4.80;99.90;;;;;;5128211;27;20110;-66
2022/12/18 06:32:04;;;;;;;36.42;17.45;;;-4.80;99.90;;;;;;5092842;27;20043;-67
2022/12/18 06:34:32;;;;;;;36.47;17.20;;;-4.80;99.90;;;;;;5092565;28;20118;-67
2022/12/18 06:36:57;;;;;;;33.38;16.60;;;-4.80;99.90;;;;;;5075052;28;20102;-67
2022/12/18 06:39:23;;;;;;;35.67;16.50;;;-4.90;99.90;;;;;;5077094;28;20036;-67
2022/12/18 06:41:49;;;;;;;34.22;15.90;;;-4.90;99.90;;;;;;5093155;28;20391;-67
2022/12/18 06:44:14;;;;;;;33.58;16.25;;;-4.90;99.90;;;;;;5093114;28;20126;-67
2022/12/18 06:46:40;;;;;;;33.22;16.85;;;-5.00;99.90;;;;;;5126610;27;20043;-67
2022/12/18 06:49:06;;;;;;;38.22;17.23;;;-5.00;99.90;;;;;;5093109;28;20394;-66
2022/12/18 06:51:32;;;;;;;36.47;16.40;;;-5.00;99.90;;;;;;5073777;28;20040;-68
2022/12/18 06:53:57;;;;;;;34.50;16.23;;;-5.00;99.90;;;;;;5089649;28;20407;-68
2022/12/18 06:56:23;;;;;;;32.40;17.20;;;-4.90;99.90;;;;;;5089922;28;20039;-67
2022/12/18 06:58:48;;;;;;;41.00;19.42;;;-4.90;99.90;;;;;;5088205;28;20394;-67
2022/12/18 07:01:14;;;;;;;43.08;19.83;;;-4.90;99.90;;;;;;5125113;27;20051;-67
2022/12/18 07:03:41;;;;;;;43.05;20.10;;;-4.80;99.90;;;;;;5090461;27;20028;-67
2022/12/18 07:06:17;;;;;;;35.45;18.55;;;-4.90;99.90;;;;;;5075090;28;20054;-67
2022/12/18 07:08:44;;;;;;;40.28;19.10;;;-4.80;99.90;;;;;;5123816;27;20490;-67
2022/12/18 07:11:09;;;;;;;32.88;16.27;;;-4.90;99.90;;;;;;5085643;28;20036;-67
2022/12/18 07:13:35;;;;;;;36.58;17.20;;;-4.90;99.90;;;;;;5084778;28;20097;-67
2022/12/18 07:16:08;;;;;;;37.45;17.42;;;-4.90;99.90;;;;;;5091867;27;20045;-67
2022/12/18 07:18:35;;;;;;;36.10;16.60;;;-4.90;99.90;;;;;;5071813;28;20048;-67
2022/12/18 07:21:06;;;;;;;32.78;16.98;;;-4.90;99.90;;;;;;5083525;28;20127;-67
2022/12/18 07:23:33;;;;;;;36.15;17.08;;;-5.00;99.90;;;;;;5120999;27;22026;-67
2022/12/18 07:26:08;;;;;;;34.45;16.50;;;-5.00;99.90;;;;;;5084419;28;20564;-67
2022/12/18 07:28:35;;;;;;;35.22;16.45;;;-5.00;99.90;;;;;;5084035;28;20048;-68
2022/12/18 07:31:13;;;;;;;31.25;15.45;;;-5.10;99.90;;;;;;5119753;27;20038;-68
2022/12/18 07:33:38;;;;;;;32.85;16.00;;;-5.10;99.90;;;;;;5083832;28;20467;-68
2022/12/18 07:36:06;;;;;;;31.95;15.25;;;-5.10;99.90;;;;;;5084564;28;20178;-68
2022/12/18 07:38:33;;;;;;;30.60;15.20;;;-5.10;99.90;;;;;;5086347;28;20499;-67
2022/12/18 07:41:18;;;;;;;33.70;16.17;;;-5.20;99.90;;;;;;5085293;28;20048;-67
2022/12/18 07:43:44;;;;;;;29.75;15.25;;;-5.20;99.90;;;;;;5121536;28;20055;-68
2022/12/18 07:46:10;;;;;;;31.33;16.13;;;-5.20;99.90;;;;;;5087793;28;20032;-68
2022/12/18 07:48:36;;;;;;;30.13;16.02;;;-5.20;99.90;;;;;;5091376;28;20115;-67
2022/12/18 07:51:04;;;;;;;30.90;15.32;;;-5.20;99.90;;;;;;5088915;28;20115;-68
2022/12/18 07:53:31;;;;;;;29.38;15.20;;;-5.20;99.90;;;;;;5092923;28;20486;-67
2022/12/18 07:56:03;;;;;;;29.60;15.75;;;-5.20;99.90;;;;;;5091010;28;20057;-68
2022/12/18 07:58:29;;;;;;;;;;;-5.20;99.90;;;;;;5092182;28;20132;-67
2022/12/18 08:01:01;;;;;;;25.27;14.68;;;-5.10;99.90;;;;;;5125283;27;19950;-68
2022/12/18 08:03:27;;;;;;;;;;;-5.10;99.90;;;;;;5092171;28;20493;-68
2022/12/18 08:05:57;;;;;;;27.80;14.27;;;-5.10;99.90;;;;;;5091996;28;20004;-67
2022/12/18 08:08:23;;;;;;;27.98;15.20;;;-5.10;99.90;;;;;;5074551;28;20052;-67
2022/12/18 08:10:48;;;;;;;33.22;14.98;;;-5.00;99.90;;;;;;5092442;28;20040;-67
2022/12/18 08:13:14;;;;;;;26.13;13.70;;;-5.00;99.90;;;;;;5088915;28;20043;-67
2022/12/18 08:15:40;;;;;;;27.88;14.35;;;-5.00;99.90;;;;;;5089741;28;20441;-68
2022/12/18 08:18:05;;;;;;;27.27;15.07;;;-4.90;99.90;;;;;;5127246;27;20083;-68
2022/12/18 08:20:31;;;;;;;25.90;14.98;;;-4.90;99.90;;;;;;5094969;28;20071;-68
2022/12/18 08:22:57;;;;;;;29.52;14.98;;;-4.90;99.90;;;;;;5076649;27;20108;-67
2022/12/18 08:25:23;;;;;;;29.48;14.48;;;-4.90;99.90;;;;;;5093075;28;20127;-68
2022/12/18 08:27:49;;;;;;;27.17;15.00;;;-4.90;99.90;;;;;;5094484;27;20158;-67
2022/12/18 08:30:14;;;;;;;27.75;15.10;;;-4.80;99.90;;;;;;5093733;28;20499;-68
2022/12/18 08:32:40;;;;;;;25.92;14.10;;;-4.80;99.90;;;;;;5111671;28;20034;-67
2022/12/18 08:35:06;;;;;;;25.23;14.23;;;-4.80;99.90;;;;;;5093654;28;20027;-67
2022/12/18 08:37:32;;;;;;;24.25;14.13;;;-4.70;99.90;;;;;;5095351;28;20496;-68
2022/12/18 08:39:57;;;;;;;28.38;15.30;;;-4.70;99.90;;;;;;5113036;27;20035;-68
2022/12/18 08:45:08;;;;;;;26.85;14.00;;;-4.60;99.90;;;;;;5128227;27;20094;-68
2022/12/18 08:47:34;;;;;;;22.95;12.82;;;-4.50;99.90;;;;;;5095174;28;20096;-68
2022/12/18 08:49:59;;;;;;;24.27;13.38;;;-4.40;99.90;;;;;;5094724;28;20402;-67
2022/12/18 08:52:25;;;;;;;25.02;12.52;;;-4.30;99.90;;;;;;5095370;28;20054;-68
2022/12/18 08:54:50;;;;;;;23.27;12.85;;;-4.20;99.90;;;;;;5094732;28;20069;-68
2022/12/18 08:57:16;;;;;;;20.85;12.63;;;-4.20;99.90;;;;;;5095873;28;20122;-68
2022/12/18 08:59:42;;;;;;;22.77;12.38;;;-4.20;99.90;;;;;;5094096;28;20043;-68
2022/12/18 09:02:10;;;;;;;24.02;12.98;;;-4.10;99.90;;;;;;5095042;28;20035;-68
2022/12/18 09:04:36;;;;;;;22.73;12.50;;;-4.10;99.90;;;;;;5108985;27;20043;-68
2022/12/18 09:07:01;;;;;;;23.80;12.40;;;-4.00;99.90;;;;;;5094231;28;20035;-68
2022/12/18 09:09:27;;;;;;;20.88;12.15;;;-3.90;99.90;;;;;;5096389;27;20047;-67
2022/12/18 09:11:53;;;;;;;22.23;12.30;;;-3.90;99.90;;;;;;5092172;28;20044;-68
2022/12/18 09:14:18;;;;;;;21.77;11.38;;;-3.80;99.90;;;;;;5090266;28;20172;-67
2022/12/18 09:16:44;;;;;;;20.05;11.00;;;-3.70;99.90;;;;;;5093984;28;20477;-67
2022/12/18 09:19:10;;;;;;;22.20;12.25;;;-3.70;99.90;;;;;;5076710;28;20043;-68
2022/12/18 09:21:35;;;;;;;19.10;11.73;;;-3.60;99.90;;;;;;5094073;28;20047;-68
2022/12/18 09:24:01;;;;;;;19.52;11.52;;;-3.40;99.90;;;;;;5112875;28;20177;-67
2022/12/18 09:26:27;;;;;;;21.63;12.40;;;-3.30;99.90;;;;;;5094797;28;20039;-68
2022/12/18 09:28:53;;;;;;;23.05;11.98;;;-3.10;99.90;;;;;;5128746;27;20047;-67
2022/12/18 09:31:21;;;;;;;19.25;10.98;;;-3.00;99.90;;;;;;5094830;28;20045;-68
2022/12/18 09:33:47;;;;;;;18.20;10.55;;;-3.00;99.90;;;;;;5077361;28;20153;-69
2022/12/18 09:36:15;;;;;;;18.40;11.30;;;-2.90;99.90;;;;;;5094686;28;20122;-66
2022/12/18 09:38:41;;;;;;;16.65;10.35;;;-2.80;99.90;;;;;;5094828;28;20114;-67
2022/12/18 09:41:34;;;;;;;17.92;10.85;;;-2.80;99.90;;;;;;5094345;28;20119;-66
2022/12/18 09:44:16;;;;;;;16.45;10.43;;;-2.70;99.90;;;;;;5076211;28;20094;-67
2022/12/18 09:47:05;;;;;;;15.60;9.75;;;-2.70;99.90;;;;;;5094756;28;20050;-67
2022/12/18 09:49:34;;;;;;;18.13;10.13;;;-2.50;99.90;;;;;;5093951;28;20065;-67
2022/12/18 09:52:31;;;;;;;17.73;10.05;;;-2.40;99.90;;;;;;5112895;28;20043;-67
2022/12/18 09:55:17;;;;;;;17.58;9.63;;;-2.30;99.90;;;;;;5094724;28;20046;-66
2022/12/18 09:57:49;;;;;;;14.90;8.63;;;-2.20;99.90;;;;;;5093788;28;20039;-66
2022/12/18 10:00:23;;;;;;;16.42;9.77;;;-2.10;99.90;;;;;;5110727;28;20036;-66
2022/12/18 10:02:53;;;;;;;15.45;9.23;;;-2.00;99.90;;;;;;5127506;27;20044;-67
2022/12/18 10:05:56;;;;;;;17.30;9.50;;;-1.90;99.90;;;;;;5127613;27;20032;-68
2022/12/18 10:08:35;;;;;;;16.88;9.45;;;-1.90;99.90;;;;;;5093156;28;20039;-67
2022/12/18 10:11:27;;;;;;;15.52;9.48;;;-1.90;99.90;;;;;;5093230;28;20482;-67
2022/12/18 10:14:01;;;;;;;16.38;10.35;;;-2.00;99.90;;;;;;5084974;28;20066;-67
2022/12/18 10:16:40;;;;;;;16.55;8.98;;;-2.00;99.90;;;;;;5092997;28;20576;-67
2022/12/18 10:19:18;;;;;;;13.80;9.43;;;-2.00;99.90;;;;;;5093107;28;20051;-67
2022/12/18 10:22:01;;;;;;;15.00;9.23;;;-2.00;99.90;;;;;;5109749;28;20044;-67
2022/12/18 10:24:41;;;;;;;19.80;10.95;;;-2.00;99.90;;;;;;5092715;28;20036;-67
2022/12/18 10:27:12;;;;;;;21.17;11.13;;;-2.00;99.90;;;;;;5092842;28;20055;-67
2022/12/18 10:29:38;;;;;;;21.00;11.20;;;-2.00;99.90;;;;;;5076231;28;20524;-67
2022/12/18 10:32:03;;;;;;;18.45;10.75;;;-2.00;99.90;;;;;;5092696;28;20035;-68
2022/12/18 10:34:29;;;;;;;16.95;9.93;;;-1.90;99.90;;;;;;5075912;28;20130;-67
2022/12/18 10:36:55;;;;;;;14.18;9.00;;;-1.90;99.90;;;;;;5093064;28;20039;-67
2022/12/18 10:39:23;;;;;;;15.10;9.30;;;-1.80;99.90;;;;;;5111018;28;20043;-67
2022/12/18 10:41:49;;;;;;;14.85;9.32;;;-1.80;99.90;;;;;;5126792;27;20043;-66
2022/12/18 10:44:23;;;;;;;16.90;10.05;;;-1.80;99.90;;;;;;5092380;28;20421;-68
2022/12/18 10:47:03;;;;;;;17.58;11.70;;;-1.70;99.90;;;;;;5092316;28;20032;-67
2022/12/18 10:49:32;;;;;;;17.85;12.13;;;-1.80;99.90;;;;;;5092735;28;20042;-67
2022/12/18 10:52:24;;;;;;;18.88;11.73;;;-1.70;99.90;;;;;;5092412;28;20035;-67
2022/12/18 10:54:58;;;;;;;19.90;12.95;;;-1.60;99.90;;;;;;5092293;28;20065;-67
2022/12/18 10:57:34;;;;;;;17.27;12.80;;;-1.70;99.90;;;;;;5126589;27;20035;-67
2022/12/18 11:00:20;;;;;;;20.42;11.75;;;-1.60;99.90;;;;;;5092739;28;20061;-67
2022/12/18 11:02:46;;;;;;;15.82;10.30;;;-1.60;99.90;;;;;;5089364;28;20046;-67
2022/12/18 11:05:30;;;;;;;13.50;8.98;;;-1.50;99.90;;;;;;5092381;28;20385;-67
2022/12/18 11:08:03;;;;;;;15.65;8.52;;;-1.50;99.90;;;;;;5091696;28;20044;-67
2022/12/18 11:10:47;;;;;;;14.18;8.25;;;-1.40;99.90;;;;;;5125916;27;20101;-68
2022/12/18 11:13:18;;;;;;;13.88;8.52;;;-1.40;99.90;;;;;;5091387;28;20055;-67
2022/12/18 11:15:44;;;;;;;13.65;8.38;;;-1.40;99.90;;;;;;5108638;28;20122;-68
2022/12/18 11:18:22;;;;;;;13.63;8.82;;;-1.30;99.90;;;;;;5109928;28;20058;-68
2022/12/18 11:20:54;;;;;;;15.63;8.50;;;-1.30;99.90;;;;;;5083044;28;20565;-68
2022/12/18 11:23:24;;;;;;;15.32;9.23;;;-1.20;99.90;;;;;;5105383;28;20048;-68
2022/12/18 11:26:08;;;;;;;12.30;8.38;;;-1.20;99.90;;;;;;5071383;28;20032;-68
2022/12/18 11:28:51;;;;;;;13.50;8.50;;;-1.10;99.90;;;;;;5089621;28;20044;-68
2022/12/18 11:31:22;;;;;;;13.70;8.65;;;-1.10;99.90;;;;;;5071499;28;20044;-68
2022/12/18 11:34:06;;;;;;;14.90;9.20;;;-1.10;99.90;;;;;;5070895;28;20052;-68
2022/12/18 11:36:38;;;;;;;14.77;8.95;;;-1.00;99.90;;;;;;5072037;28;20530;-68
2022/12/18 11:39:17;;;;;;;12.57;8.23;;;-1.00;99.90;;;;;;5071581;28;20132;-68
2022/12/18 11:42:11;;;;;;;14.52;8.50;;;-1.00;99.90;;;;;;5071850;28;20326;-68
2022/12/18 11:44:43;;;;;;;15.85;8.60;;;-1.00;99.90;;;;;;5104103;28;20040;-68
2022/12/18 11:47:25;;;;;;;12.52;8.50;;;-1.00;99.90;;;;;;5071765;28;20387;-68
2022/12/18 11:49:52;;;;;;;12.27;7.65;;;-1.00;99.90;;;;;;5071694;28;20043;-68
2022/12/18 11:52:23;;;;;;;12.63;8.10;;;-1.00;99.90;;;;;;5054565;28;20067;-68
2022/12/18 11:54:55;;;;;;;12.55;8.23;;;-1.00;99.90;;;;;;5105328;28;20032;-67
2022/12/18 11:57:48;;;;;;;12.35;8.20;;;-1.00;99.90;;;;;;5054811;28;20057;-68
2022/12/18 12:00:19;;;;;;;11.23;7.15;;;-1.00;99.90;;;;;;5071321;28;20044;-68
2022/12/18 12:03:23;;;;;;;13.07;7.50;;;-1.00;99.90;;;;;;5105178;28;20040;-68
2022/12/18 12:06:04;;;;;;;10.82;7.35;;;-1.00;99.90;;;;;;5053633;28;20044;-68
2022/12/18 12:08:49;;;;;;;11.93;7.57;;;-1.00;99.90;;;;;;5071754;28;20408;-68
2022/12/18 12:11:33;;;;;;;9.32;7.15;;;-1.00;99.90;;;;;;5104956;28;20036;-68
2022/12/18 12:14:18;;;;;;;11.63;6.93;;;-1.00;99.90;;;;;;5089396;28;20036;-68
2022/12/18 12:16:51;;;;;;;10.18;6.90;;;-0.90;99.90;;;;;;5071646;28;20566;-68
2022/12/18 12:19:30;;;;;;;9.32;6.18;;;-0.90;99.90;;;;;;5072309;28;20067;-68
2022/12/18 12:22:13;;;;;;;11.55;6.88;;;-0.90;99.90;;;;;;5091542;28;20052;-67
2022/12/18 12:25:14;;;;;;;;;;;-0.90;99.90;;;;;;5091919;28;20051;-68
2022/12/18 12:28:02;;;;;;;11.90;7.22;;;-0.90;99.90;;;;;;5063635;28;19917;-68
2022/12/18 12:30:41;;;;;;;10.82;7.70;;;-0.90;99.90;;;;;;5029987;28;20045;-68
2022/12/18 12:33:44;;;;;;;10.40;6.60;;;-0.90;99.90;;;;;;5031890;28;20087;-68
2022/12/18 12:36:19;;;;;;;9.40;6.63;;;-0.80;99.90;;;;;;5017385;28;20059;-68
2022/12/18 12:38:50;;;;;;;9.38;6.20;;;-0.80;99.90;;;;;;5034201;28;20499;-68
2022/12/18 12:44:12;;;;;;;10.23;6.85;;;-0.70;99.90;;;;;;5033720;28;20079;-68
2022/12/18 12:46:41;;;;;;;9.63;6.70;;;-0.70;99.90;;;;;;5033521;28;20029;-67
2022/12/18 12:49:17;;;;;;;10.73;6.57;;;-0.70;99.90;;;;;;5033564;28;20045;-67
2022/12/18 12:51:49;;;;;;;9.98;6.13;;;-0.60;99.90;;;;;;5033594;28;20037;-67
2022/12/18 12:54:20;;;;;;;9.27;5.63;;;-0.50;99.90;;;;;;5031305;28;20055;-68
2022/12/18 12:56:50;;;;;;;8.65;5.68;;;-0.50;99.90;;;;;;5032932;28;20063;-68
2022/12/18 12:59:34;;;;;;;10.15;5.93;;;-0.50;99.90;;;;;;5033049;28;20521;-67